Time;durP1;ratioP1;P1;durP2;ratioP2;P2;SDS_P1;SDS_P2;PMS_P1;PMS_P2;Temp;Humidity;BMP_temperature;BMP_pressure;BME280_temperature;BME280_humidity;BME280_pressure;Samples;Min_cycle;Max_cycle;Signal;HPM_P1;HPM_P2
2022/03/15 00:00:27;;;;;;;9.63;6.20;;;;;;;;;;4990943;28;20204;-77
2022/03/15 00:02:54;;;;;;;11.00;6.80;;;;;;;;;;5010810;28;20227;-78
2022/03/15 00:05:21;;;;;;;11.45;6.53;;;;;;;;;;5011074;28;20220;-76
2022/03/15 00:07:49;;;;;;;10.65;7.35;;;;;;;;;;5011356;28;20731;-79
2022/03/15 00:10:18;;;;;;;11.50;7.95;;;;;;;;;;5010604;28;20207;-76
2022/03/15 00:12:46;;;;;;;8.23;6.40;;;;;;;;;;4995938;28;20280;-76
2022/03/15 00:15:15;;;;;;;12.45;7.68;;;;;;;;;;5013188;28;20235;-76
2022/03/15 00:17:44;;;;;;;8.57;6.60;;;;;;;;;;5002935;28;20216;-79
2022/03/15 00:20:14;;;;;;;11.90;6.68;;;;;;;;;;4981662;28;20206;-78
2022/03/15 00:22:41;;;;;;;10.25;6.60;;;;;;;;;;5007088;28;20228;-78
2022/03/15 00:25:11;;;;;;;9.32;6.90;;;;;;;;;;5010573;28;20207;-80
2022/03/15 00:27:39;;;;;;;10.88;7.68;;;;;;;;;;5010753;28;20287;-80
2022/03/15 00:30:07;;;;;;;15.45;8.20;;;;;;;;;;4993498;28;20211;-76
2022/03/15 00:32:36;;;;;;;11.90;7.05;;;;;;;;;;5010537;28;20224;-77
2022/03/15 00:35:05;;;;;;;9.00;6.95;;;;;;;;;;5013380;28;20208;-76
2022/03/15 00:37:35;;;;;;;9.05;6.63;;;;;;;;;;5013415;28;20228;-83
2022/03/15 00:40:02;;;;;;;10.75;7.13;;;;;;;;;;5002926;28;20213;-80
2022/03/15 00:42:29;;;;;;;8.60;6.78;;;;;;;;;;4998008;28;20224;-77
2022/03/15 00:45:01;;;;;;;10.35;6.97;;;;;;;;;;4992767;28;20220;-82
2022/03/15 00:47:29;;;;;;;10.05;7.85;;;;;;;;;;4990427;28;20231;-80
2022/03/15 00:49:57;;;;;;;17.83;10.00;;;;;;;;;;4990713;28;20659;-82
2022/03/15 00:52:24;;;;;;;11.05;7.43;;;;;;;;;;4991116;28;20237;-78
2022/03/15 00:54:51;;;;;;;11.30;7.93;;;;;;;;;;4990597;28;20211;-75
2022/03/15 00:57:19;;;;;;;10.80;6.70;;;;;;;;;;4992600;28;20581;-76
2022/03/15 00:59:46;;;;;;;9.82;6.72;;;;;;;;;;4995592;28;20208;-78
2022/03/15 01:02:13;;;;;;;10.15;7.00;;;;;;;;;;4994943;28;20243;-79
2022/03/15 01:04:40;;;;;;;11.65;6.82;;;;;;;;;;4997017;28;20212;-78
2022/03/15 01:07:11;;;;;;;8.25;5.90;;;;;;;;;;5008217;28;20204;-77
2022/03/15 01:09:39;;;;;;;8.50;6.05;;;;;;;;;;5013799;28;20227;-79
2022/03/15 01:12:06;;;;;;;11.00;6.70;;;;;;;;;;5013724;28;20224;-75
2022/03/15 01:14:33;;;;;;;10.45;6.60;;;;;;;;;;5013551;28;20290;-74
2022/03/15 01:17:02;;;;;;;11.00;7.50;;;;;;;;;;5013843;28;20219;-76
2022/03/15 01:19:29;;;;;;;8.02;7.22;;;;;;;;;;5014911;28;20208;-78
2022/03/15 01:21:57;;;;;;;11.05;6.90;;;;;;;;;;5015967;28;20228;-76
2022/03/15 01:24:26;;;;;;;11.65;7.47;;;;;;;;;;5007929;28;20203;-75
2022/03/15 01:26:54;;;;;;;13.07;7.40;;;;;;;;;;5001391;28;20204;-76
2022/03/15 01:29:23;;;;;;;10.65;6.88;;;;;;;;;;4996458;28;20686;-78
2022/03/15 01:31:50;;;;;;;12.13;7.22;;;;;;;;;;4993951;28;20709;-75
2022/03/15 01:34:17;;;;;;;16.45;6.90;;;;;;;;;;4993984;28;20315;-79
2022/03/15 01:36:45;;;;;;;10.00;6.90;;;;;;;;;;4993893;28;20231;-76
2022/03/15 01:39:12;;;;;;;9.38;6.13;;;;;;;;;;4994271;28;20209;-82
2022/03/15 01:41:41;;;;;;;13.38;7.20;;;;;;;;;;4995239;28;20569;-82
2022/03/15 01:44:14;;;;;;;8.35;6.25;;;;;;;;;;4996021;28;20239;-79
2022/03/15 01:46:41;;;;;;;13.40;6.47;;;;;;;;;;4999021;28;20200;-76
2022/03/15 01:49:09;;;;;;;7.03;6.32;;;;;;;;;;5001114;28;20200;-82
2022/03/15 01:51:38;;;;;;;13.68;7.40;;;;;;;;;;4996040;28;20275;-77
2022/03/15 01:54:05;;;;;;;9.13;6.60;;;;;;;;;;4993445;28;20208;-79
2022/03/15 01:56:34;;;;;;;9.88;7.30;;;;;;;;;;4993183;28;20224;-80
2022/03/15 01:59:02;;;;;;;10.80;7.38;;;;;;;;;;4993929;28;20205;-77
2022/03/15 02:01:29;;;;;;;11.13;7.25;;;;;;;;;;4993610;28;20211;-80
2022/03/15 02:03:56;;;;;;;9.25;6.70;;;;;;;;;;5013602;28;20208;-77
2022/03/15 02:06:24;;;;;;;6.97;6.28;;;;;;;;;;5014827;28;20676;-77
2022/03/15 02:08:51;;;;;;;9.90;6.88;;;;;;;;;;5006820;28;20665;-77
2022/03/15 02:11:18;;;;;;;9.85;7.22;;;;;;;;;;5000874;28;20241;-79
2022/03/15 02:13:46;;;;;;;9.52;6.63;;;;;;;;;;5007551;28;20239;-78
2022/03/15 02:16:16;;;;;;;10.20;6.53;;;;;;;;;;5013258;28;20266;-79
2022/03/15 02:18:43;;;;;;;7.82;5.85;;;;;;;;;;5012550;28;20208;-80
2022/03/15 02:21:12;;;;;;;10.30;6.43;;;;;;;;;;5012552;28;20204;-77
2022/03/15 02:23:39;;;;;;;8.68;6.22;;;;;;;;;;5012660;28;20290;-76
2022/03/15 02:26:06;;;;;;;9.95;7.03;;;;;;;;;;5013767;28;20219;-80
2022/03/15 02:28:33;;;;;;;8.10;6.55;;;;;;;;;;5014668;28;20554;-76
2022/03/15 02:31:00;;;;;;;9.48;6.65;;;;;;;;;;5007297;28;20213;-79
2022/03/15 02:33:27;;;;;;;8.55;6.82;;;;;;;;;;5000209;28;20217;-78
2022/03/15 02:35:55;;;;;;;9.70;6.18;;;;;;;;;;5005956;28;20200;-75
2022/03/15 02:38:23;;;;;;;7.85;6.15;;;;;;;;;;5012190;28;20496;-78
2022/03/15 02:40:51;;;;;;;7.03;6.28;;;;;;;;;;5012486;28;20593;-77
2022/03/15 02:43:18;;;;;;;9.25;7.18;;;;;;;;;;5012173;28;20231;-78
2022/03/15 02:45:45;;;;;;;9.20;6.80;;;;;;;;;;5012208;28;20557;-75
2022/03/15 02:48:13;;;;;;;9.93;6.40;;;;;;;;;;5013160;28;20218;-75
2022/03/15 02:50:40;;;;;;;8.82;6.65;;;;;;;;;;5013993;28;20227;-81
2022/03/15 02:53:08;;;;;;;8.82;6.00;;;;;;;;;;5007631;28;20217;-78
2022/03/15 02:55:36;;;;;;;7.47;6.28;;;;;;;;;;4999867;28;20567;-78
2022/03/15 02:58:03;;;;;;;9.25;6.10;;;;;;;;;;4995961;28;20231;-79
2022/03/15 03:00:31;;;;;;;8.93;6.30;;;;;;;;;;4992900;28;20536;-78
2022/03/15 03:02:59;;;;;;;10.27;6.18;;;;;;;;;;4991853;28;20622;-76
2022/03/15 03:05:26;;;;;;;8.30;6.30;;;;;;;;;;4975235;28;20233;-76
2022/03/15 03:07:53;;;;;;;11.57;6.85;;;;;;;;;;4992488;28;20204;-75
2022/03/15 03:10:20;;;;;;;10.05;7.93;;;;;;;;;;4993350;28;20219;-80
2022/03/15 03:12:50;;;;;;;8.80;5.57;;;;;;;;;;4993938;28;20267;-75
2022/03/15 03:15:20;;;;;;;7.15;6.15;;;;;;;;;;4996609;28;20204;-75
2022/03/15 03:17:48;;;;;;;12.88;6.28;;;;;;;;;;4999250;28;20258;-79
2022/03/15 03:20:19;;;;;;;8.20;5.60;;;;;;;;;;4978482;28;20560;-77
2022/03/15 03:22:47;;;;;;;8.35;6.10;;;;;;;;;;4991206;28;20243;-77
2022/03/15 03:25:14;;;;;;;10.18;6.25;;;;;;;;;;4991858;28;20704;-79
2022/03/15 03:27:42;;;;;;;8.77;5.35;;;;;;;;;;4991925;28;20588;-79
2022/03/15 03:30:13;;;;;;;6.30;5.25;;;;;;;;;;4991980;28;20223;-77
2022/03/15 03:32:40;;;;;;;7.03;6.28;;;;;;;;;;5009806;28;20224;-78
2022/03/15 03:35:07;;;;;;;9.65;6.60;;;;;;;;;;5013537;28;20208;-76
2022/03/15 03:37:34;;;;;;;7.60;5.60;;;;;;;;;;5005503;28;20228;-79
2022/03/15 03:40:05;;;;;;;9.52;5.70;;;;;;;;;;4998866;28;20211;-77
2022/03/15 03:42:32;;;;;;;11.38;6.15;;;;;;;;;;4994360;28;20259;-77
2022/03/15 03:44:59;;;;;;;11.48;5.60;;;;;;;;;;4991567;28;20205;-77
2022/03/15 03:47:27;;;;;;;7.35;5.57;;;;;;;;;;4991477;28;20665;-80
2022/03/15 03:49:54;;;;;;;8.60;6.20;;;;;;;;;;4991555;28;20215;-80
2022/03/15 03:52:22;;;;;;;8.15;6.05;;;;;;;;;;4991560;28;20220;-74
2022/03/15 03:54:49;;;;;;;10.35;5.80;;;;;;;;;;4992974;28;20208;-77
2022/03/15 03:57:16;;;;;;;8.52;5.60;;;;;;;;;;4993582;28;20239;-74
2022/03/15 03:59:43;;;;;;;10.43;6.40;;;;;;;;;;4997379;28;20215;-76
2022/03/15 04:02:10;;;;;;;7.93;6.10;;;;;;;;;;4999619;28;20232;-77
2022/03/15 04:04:39;;;;;;;9.75;5.63;;;;;;;;;;5005953;28;20200;-80
2022/03/15 04:07:07;;;;;;;9.40;6.47;;;;;;;;;;5010938;28;20200;-78
2022/03/15 04:09:34;;;;;;;9.38;6.90;;;;;;;;;;5010889;28;20208;-78
2022/03/15 04:12:02;;;;;;;8.10;5.45;;;;;;;;;;5010918;28;20578;-79
2022/03/15 04:14:29;;;;;;;6.95;4.78;;;;;;;;;;5011040;28;20226;-77
2022/03/15 04:16:57;;;;;;;7.72;5.45;;;;;;;;;;5012076;28;20228;-75
2022/03/15 04:19:24;;;;;;;10.43;5.95;;;;;;;;;;4995304;28;20207;-76
2022/03/15 04:21:52;;;;;;;6.20;5.13;;;;;;;;;;5004034;28;20229;-78
2022/03/15 04:24:19;;;;;;;7.35;5.95;;;;;;;;;;4997914;28;20228;-80
2022/03/15 04:26:47;;;;;;;6.05;5.00;;;;;;;;;;5006111;28;20212;-78
2022/03/15 04:29:15;;;;;;;8.18;5.32;;;;;;;;;;4993298;28;20254;-83
2022/03/15 04:31:42;;;;;;;5.80;4.85;;;;;;;;;;5010721;28;20200;-78
2022/03/15 04:34:10;;;;;;;9.57;6.10;;;;;;;;;;5014814;28;20299;-78
2022/03/15 04:36:39;;;;;;;7.18;5.00;;;;;;;;;;5018780;28;20232;-80
2022/03/15 04:39:08;;;;;;;6.97;4.80;;;;;;;;;;5017929;28;20295;-77
2022/03/15 04:41:35;;;;;;;8.15;5.32;;;;;;;;;;5016358;28;20679;-76
2022/03/15 04:44:03;;;;;;;6.13;5.20;;;;;;;;;;5007066;28;20226;-78
2022/03/15 04:46:30;;;;;;;11.13;6.63;;;;;;;;;;5002488;28;20196;-75
2022/03/15 04:48:57;;;;;;;8.35;5.32;;;;;;;;;;4992932;28;20206;-81
2022/03/15 04:51:25;;;;;;;6.63;5.35;;;;;;;;;;5013830;28;20218;-78
2022/03/15 04:53:52;;;;;;;7.82;6.13;;;;;;;;;;5014453;28;20835;-80
2022/03/15 04:56:21;;;;;;;9.35;5.07;;;;;;;;;;5014407;28;20573;-80
2022/03/15 04:58:48;;;;;;;13.02;5.85;;;;;;;;;;5014409;28;20231;-76
2022/03/15 05:01:15;;;;;;;11.02;5.65;;;;;;;;;;5015934;28;20207;-79
2022/03/15 05:03:43;;;;;;;6.93;5.15;;;;;;;;;;5015969;28;20232;-76
2022/03/15 05:06:10;;;;;;;10.10;5.13;;;;;;;;;;5005999;28;20207;-79
2022/03/15 05:08:37;;;;;;;8.73;5.72;;;;;;;;;;5001922;28;20200;-78
2022/03/15 05:11:07;;;;;;;11.13;6.18;;;;;;;;;;4996321;28;20215;-75
2022/03/15 05:13:38;;;;;;;8.65;5.57;;;;;;;;;;4977288;28;20235;-80
2022/03/15 05:16:06;;;;;;;7.78;6.10;;;;;;;;;;4977296;28;20657;-75
2022/03/15 05:18:34;;;;;;;10.23;6.00;;;;;;;;;;4994340;28;20283;-78
2022/03/15 05:21:02;;;;;;;9.75;5.60;;;;;;;;;;4993754;28;20456;-79
2022/03/15 05:23:30;;;;;;;8.52;5.90;;;;;;;;;;4995871;28;20267;-76
2022/03/15 05:25:57;;;;;;;8.00;5.45;;;;;;;;;;4996391;28;20550;-77
2022/03/15 05:28:24;;;;;;;9.65;5.88;;;;;;;;;;5000285;28;20210;-78
2022/03/15 05:30:53;;;;;;;8.75;5.55;;;;;;;;;;5001576;28;20196;-75
2022/03/15 05:33:20;;;;;;;10.40;7.03;;;;;;;;;;4994928;28;20223;-80
2022/03/15 05:35:47;;;;;;;6.47;4.88;;;;;;;;;;4993748;28;20236;-76
2022/03/15 05:38:15;;;;;;;7.40;5.15;;;;;;;;;;4993664;28;20697;-75
2022/03/15 05:40:42;;;;;;;10.73;5.10;;;;;;;;;;4994175;28;20542;-78
2022/03/15 05:43:10;;;;;;;8.77;5.13;;;;;;;;;;4995177;28;20229;-76
2022/03/15 05:45:37;;;;;;;7.97;4.80;;;;;;;;;;5014729;28;20906;-76
2022/03/15 05:48:06;;;;;;;7.45;5.05;;;;;;;;;;5015409;28;20207;-78
2022/03/15 05:50:33;;;;;;;9.98;6.15;;;;;;;;;;5003477;28;20200;-78
2022/03/15 05:53:05;;;;;;;8.00;4.97;;;;;;;;;;5000780;28;20909;-75
2022/03/15 05:55:32;;;;;;;9.02;6.03;;;;;;;;;;4994373;28;20204;-80
2022/03/15 05:57:59;;;;;;;10.27;4.70;;;;;;;;;;4992975;28;20220;-80
2022/03/15 06:00:27;;;;;;;8.88;5.13;;;;;;;;;;4993312;28;20208;-75
2022/03/15 06:02:54;;;;;;;9.77;5.18;;;;;;;;;;4993349;28;20264;-78
2022/03/15 06:05:22;;;;;;;6.70;5.03;;;;;;;;;;4993005;28;20884;-80
2022/03/15 06:07:50;;;;;;;5.93;4.63;;;;;;;;;;4998108;28;20567;-77
2022/03/15 06:10:18;;;;;;;10.60;4.97;;;;;;;;;;5000660;28;20208;-78
2022/03/15 06:12:45;;;;;;;6.85;4.72;;;;;;;;;;4998275;28;20224;-77
2022/03/15 06:15:13;;;;;;;9.52;4.60;;;;;;;;;;4975927;28;20205;-77
2022/03/15 06:17:48;;;;;;;9.13;4.75;;;;;;;;;;5000829;28;20307;-79
2022/03/15 06:20:16;;;;;;;9.80;4.72;;;;;;;;;;4993881;28;20238;-75
2022/03/15 06:22:45;;;;;;;10.10;4.50;;;;;;;;;;5012031;28;20236;-75
2022/03/15 06:25:12;;;;;;;7.50;4.68;;;;;;;;;;5012896;28;20204;-78
2022/03/15 06:27:39;;;;;;;10.45;5.47;;;;;;;;;;4994834;28;20212;-76
2022/03/15 06:30:08;;;;;;;7.65;4.85;;;;;;;;;;4997507;28;20204;-76
2022/03/15 06:32:35;;;;;;;8.77;5.88;;;;;;;;;;4999626;28;20220;-77
2022/03/15 06:35:07;;;;;;;9.40;4.80;;;;;;;;;;5007079;28;20216;-76
2022/03/15 06:37:37;;;;;;;11.90;4.95;;;;;;;;;;4993134;28;20255;-76
2022/03/15 06:40:06;;;;;;;8.75;6.13;;;;;;;;;;4992917;28;20196;-75
2022/03/15 06:42:33;;;;;;;8.27;5.03;;;;;;;;;;4993438;28;20271;-78
2022/03/15 06:45:01;;;;;;;9.40;4.97;;;;;;;;;;4992917;28;20205;-75
2022/03/15 06:47:28;;;;;;;11.85;5.35;;;;;;;;;;4993835;28;20204;-79
2022/03/15 06:49:55;;;;;;;7.25;5.35;;;;;;;;;;4994412;28;20211;-76
2022/03/15 06:52:22;;;;;;;8.52;5.05;;;;;;;;;;4996407;28;20215;-74
2022/03/15 06:54:50;;;;;;;9.02;5.63;;;;;;;;;;5000034;28;20204;-78
2022/03/15 06:57:18;;;;;;;6.10;4.30;;;;;;;;;;5004785;28;20212;-73
2022/03/15 06:59:45;;;;;;;6.70;5.00;;;;;;;;;;5008069;28;20655;-79
2022/03/15 07:02:13;;;;;;;7.95;4.57;;;;;;;;;;4992523;28;20517;-77
2022/03/15 07:04:40;;;;;;;8.38;4.85;;;;;;;;;;4992329;28;20205;-76
2022/03/15 07:07:07;;;;;;;11.10;5.28;;;;;;;;;;4992803;28;20200;-78
2022/03/15 07:09:35;;;;;;;7.72;4.72;;;;;;;;;;4993037;28;20213;-79
2022/03/15 07:12:02;;;;;;;9.88;5.18;;;;;;;;;;4994141;28;20256;-77
2022/03/15 07:14:31;;;;;;;10.27;4.85;;;;;;;;;;4995014;28;20578;-77
2022/03/15 07:16:58;;;;;;;7.47;5.38;;;;;;;;;;4999608;28;20200;-78
2022/03/15 07:19:26;;;;;;;6.57;4.07;;;;;;;;;;4996025;28;20335;-76
2022/03/15 07:21:54;;;;;;;10.63;4.57;;;;;;;;;;4991956;28;20225;-76
2022/03/15 07:24:21;;;;;;;6.10;4.50;;;;;;;;;;4991997;28;20229;-75
2022/03/15 07:26:48;;;;;;;7.07;4.35;;;;;;;;;;4992147;28;20216;-76
2022/03/15 07:29:15;;;;;;;6.13;3.90;;;;;;;;;;4992095;28;20221;-75
2022/03/15 07:31:44;;;;;;;4.78;3.53;;;;;;;;;;4992848;28;20208;-76
2022/03/15 07:34:11;;;;;;;17.88;4.88;;;;;;;;;;4993397;28;20208;-75
2022/03/15 07:36:38;;;;;;;5.20;4.30;;;;;;;;;;4994871;28;20580;-79
2022/03/15 07:39:06;;;;;;;7.13;4.40;;;;;;;;;;4998429;28;20225;-77
2022/03/15 07:41:34;;;;;;;5.80;3.95;;;;;;;;;;4978763;28;20530;-76
2022/03/15 07:44:02;;;;;;;6.97;4.32;;;;;;;;;;4991819;28;20204;-77
2022/03/15 07:46:29;;;;;;;6.25;4.20;;;;;;;;;;4991495;28;20197;-77
2022/03/15 07:48:57;;;;;;;10.73;3.80;;;;;;;;;;4992096;28;20287;-75
2022/03/15 07:51:24;;;;;;;7.90;4.40;;;;;;;;;;4993114;28;20448;-75
2022/03/15 07:53:52;;;;;;;5.88;4.00;;;;;;;;;;4994538;28;20239;-75
2022/03/15 07:56:19;;;;;;;7.33;4.00;;;;;;;;;;4992844;28;20658;-77
2022/03/15 07:58:46;;;;;;;8.68;4.47;;;;;;;;;;4993340;28;20482;-77
2022/03/15 08:01:14;;;;;;;9.13;4.60;;;;;;;;;;4980936;28;20200;-77
2022/03/15 08:03:41;;;;;;;7.25;4.28;;;;;;;;;;4999029;28;20212;-78
2022/03/15 08:06:09;;;;;;;5.90;4.57;;;;;;;;;;4990969;28;20215;-78
2022/03/15 08:08:36;;;;;;;7.78;4.43;;;;;;;;;;4990760;28;20451;-78
2022/03/15 08:11:06;;;;;;;8.07;4.63;;;;;;;;;;4991544;28;20210;-77
2022/03/15 08:13:34;;;;;;;7.77;3.87;;;;;;;;;;4991660;28;20552;-78
2022/03/15 08:16:01;;;;;;;4.80;3.73;;;;;;;;;;4992225;28;20468;-77
2022/03/15 08:18:28;;;;;;;10.67;4.40;;;;;;;;;;5011227;28;20479;-80
2022/03/15 08:20:55;;;;;;;11.70;4.30;;;;;;;;;;5012642;28;20451;-80
2022/03/15 08:23:24;;;;;;;6.57;4.40;;;;;;;;;;4998052;28;20509;-77
2022/03/15 08:25:51;;;;;;;6.50;4.83;;;;;;;;;;4999412;28;20454;-78
2022/03/15 08:28:19;;;;;;;5.20;4.40;;;;;;;;;;4994223;28;20451;-77
2022/03/15 08:30:46;;;;;;;8.83;5.10;;;;;;;;;;4990590;28;20471;-81
2022/03/15 08:33:13;;;;;;;5.83;4.57;;;;;;;;;;4991108;28;20467;-77
2022/03/15 08:35:40;;;;;;;10.30;5.50;;;;;;;;;;4996882;28;20895;-78
2022/03/15 08:38:08;;;;;;;7.63;4.67;;;;;;;;;;5010987;28;20451;-79
2022/03/15 08:40:37;;;;;;;8.40;5.67;;;;;;;;;;5012776;28;20525;-81
2022/03/15 08:43:04;;;;;;;8.53;4.47;;;;;;;;;;5012438;28;20466;-79
2022/03/15 08:45:31;;;;;;;6.07;4.30;;;;;;;;;;4983869;28;20447;-75
2022/03/15 08:47:59;;;;;;;6.93;4.50;;;;;;;;;;4994844;28;20455;-77
2022/03/15 08:50:26;;;;;;;7.80;3.97;;;;;;;;;;4996630;28;20454;-80
2022/03/15 08:52:57;;;;;;;7.90;4.80;;;;;;;;;;4972811;28;20460;-76
2022/03/15 08:55:24;;;;;;;6.90;4.80;;;;;;;;;;5008375;28;20436;-77
2022/03/15 08:57:53;;;;;;;4.63;4.00;;;;;;;;;;4984375;28;20439;-78
2022/03/15 09:00:20;;;;;;;8.53;4.17;;;;;;;;;;4994754;28;20513;-77
2022/03/15 09:02:47;;;;;;;7.95;4.43;;;;;;;;;;4991301;28;20448;-78
2022/03/15 09:05:18;;;;;;;7.33;4.30;;;;;;;;;;5000209;28;20262;-73
2022/03/15 09:07:47;;;;;;;8.87;4.87;;;;;;;;;;5003243;28;20465;-82
2022/03/15 09:10:14;;;;;;;10.23;4.90;;;;;;;;;;4999019;28;20432;-75
2022/03/15 09:12:41;;;;;;;6.77;4.73;;;;;;;;;;5008400;28;20972;-77
2022/03/15 09:15:11;;;;;;;5.60;4.70;;;;;;;;;;5011299;28;20462;-77
2022/03/15 09:17:38;;;;;;;10.90;4.10;;;;;;;;;;5002871;28;20447;-75
2022/03/15 09:20:06;;;;;;;6.13;4.20;;;;;;;;;;4994339;28;21002;-80
2022/03/15 09:22:33;;;;;;;5.87;3.80;;;;;;;;;;4981767;28;20563;-75
2022/03/15 09:25:00;;;;;;;4.93;3.90;;;;;;;;;;5016507;28;20442;-73
2022/03/15 09:27:27;;;;;;;6.30;4.27;;;;;;;;;;5016621;28;20787;-72
2022/03/15 09:29:55;;;;;;;6.80;4.50;;;;;;;;;;5007589;28;20431;-76
2022/03/15 09:32:24;;;;;;;5.07;4.23;;;;;;;;;;5002869;28;20462;-71
2022/03/15 09:34:51;;;;;;;7.13;4.40;;;;;;;;;;5010907;28;20477;-76
2022/03/15 09:37:19;;;;;;;4.83;4.17;;;;;;;;;;5014812;28;20451;-75
2022/03/15 09:39:46;;;;;;;7.23;4.80;;;;;;;;;;5014083;28;20824;-75
2022/03/15 09:42:13;;;;;;;9.30;4.17;;;;;;;;;;5014625;28;20502;-74
2022/03/15 09:44:42;;;;;;;6.53;4.40;;;;;;;;;;5013266;28;20451;-76
2022/03/15 09:47:09;;;;;;;5.73;3.83;;;;;;;;;;5015510;28;20445;-75
2022/03/15 09:49:38;;;;;;;6.13;3.97;;;;;;;;;;5006598;28;20432;-73
2022/03/15 09:52:07;;;;;;;5.13;4.00;;;;;;;;;;4997591;28;20456;-75
2022/03/15 09:54:35;;;;;;;11.40;4.83;;;;;;;;;;5000590;28;21289;-75
2022/03/15 09:57:04;;;;;;;6.93;4.50;;;;;;;;;;4996643;28;20536;-77
2022/03/15 09:59:32;;;;;;;7.80;4.70;;;;;;;;;;5012010;28;20883;-76
2022/03/15 10:01:59;;;;;;;9.20;4.50;;;;;;;;;;5010866;28;20498;-74
2022/03/15 10:04:27;;;;;;;6.87;4.53;;;;;;;;;;5013115;28;20458;-75
2022/03/15 10:06:56;;;;;;;9.20;4.60;;;;;;;;;;5012494;28;20439;-75
2022/03/15 10:09:23;;;;;;;7.63;5.00;;;;;;;;;;4999680;28;20444;-75
2022/03/15 10:11:51;;;;;;;5.97;4.43;;;;;;;;;;5000136;28;20514;-73
2022/03/15 10:14:19;;;;;;;7.57;4.87;;;;;;;;;;4992830;28;20455;-76
2022/03/15 10:16:47;;;;;;;9.07;4.90;;;;;;;;;;5009381;28;20474;-74
2022/03/15 10:19:16;;;;;;;9.97;6.10;;;;;;;;;;5011522;28;21022;-75
2022/03/15 10:21:46;;;;;;;9.10;5.63;;;;;;;;;;5012910;28;20505;-73
2022/03/15 10:24:17;;;;;;;7.70;5.43;;;;;;;;;;5006835;28;20845;-73
2022/03/15 10:26:46;;;;;;;7.70;6.00;;;;;;;;;;5005021;28;20463;-74
2022/03/15 10:29:14;;;;;;;9.30;5.97;;;;;;;;;;5000266;28;20440;-74
2022/03/15 10:31:41;;;;;;;6.50;5.10;;;;;;;;;;4993370;28;20814;-77
2022/03/15 10:34:09;;;;;;;14.63;6.30;;;;;;;;;;4996208;28;20455;-74
2022/03/15 10:36:38;;;;;;;6.70;4.97;;;;;;;;;;5012105;28;20516;-75
2022/03/15 10:39:05;;;;;;;9.07;4.87;;;;;;;;;;5011005;28;20474;-75
2022/03/15 10:41:42;;;;;;;6.13;5.27;;;;;;;;;;5011524;28;20443;-74
2022/03/15 10:44:16;;;;;;;7.30;4.97;;;;;;;;;;4997027;28;20442;-73
2022/03/15 10:46:43;;;;;;;7.83;4.60;;;;;;;;;;5014195;28;20447;-74
2022/03/15 10:49:11;;;;;;;11.17;6.60;;;;;;;;;;5003778;28;20443;-73
2022/03/15 10:51:39;;;;;;;6.53;5.10;;;;;;;;;;4999250;28;20459;-76
2022/03/15 10:54:08;;;;;;;5.63;5.03;;;;;;;;;;5008438;28;20454;-76
2022/03/15 10:56:38;;;;;;;7.13;4.10;;;;;;;;;;5001236;28;20511;-72
2022/03/15 10:59:09;;;;;;;6.43;4.03;;;;;;;;;;4992176;28;20479;-78
2022/03/15 11:01:38;;;;;;;5.27;4.57;;;;;;;;;;4992245;28;20925;-74
2022/03/15 11:04:07;;;;;;;6.57;4.87;;;;;;;;;;4977812;28;20486;-78
2022/03/15 11:06:38;;;;;;;6.90;5.33;;;;;;;;;;4992133;28;20491;-74
2022/03/15 11:09:16;;;;;;;7.90;5.60;;;;;;;;;;4999158;28;20443;-76
2022/03/15 11:11:45;;;;;;;8.57;4.80;;;;;;;;;;4995304;28;20542;-74
2022/03/15 11:14:13;;;;;;;5.10;4.60;;;;;;;;;;4992100;28;20444;-76
2022/03/15 11:16:45;;;;;;;7.13;5.00;;;;;;;;;;4991808;28;20451;-74
2022/03/15 11:19:14;;;;;;;7.93;5.13;;;;;;;;;;4991988;28;20482;-75
2022/03/15 11:21:43;;;;;;;6.60;5.20;;;;;;;;;;4992209;28;20446;-75
2022/03/15 11:24:14;;;;;;;9.70;5.33;;;;;;;;;;4992782;28;20627;-74
2022/03/15 11:26:44;;;;;;;7.77;4.80;;;;;;;;;;4993595;28;20864;-78
2022/03/15 11:29:13;;;;;;;10.07;5.30;;;;;;;;;;4978391;28;20495;-75
2022/03/15 11:31:41;;;;;;;9.93;6.23;;;;;;;;;;4998768;28;20786;-74
2022/03/15 11:34:09;;;;;;;8.43;6.33;;;;;;;;;;4999323;28;20464;-76
2022/03/15 11:36:36;;;;;;;7.37;5.30;;;;;;;;;;4992033;28;20510;-77
2022/03/15 11:39:03;;;;;;;9.20;6.57;;;;;;;;;;4991237;28;20447;-74
2022/03/15 11:41:30;;;;;;;8.17;5.57;;;;;;;;;;4991406;28;20432;-74
2022/03/15 11:44:01;;;;;;;6.60;5.63;;;;;;;;;;4991687;28;20448;-74
2022/03/15 11:46:32;;;;;;;9.07;6.30;;;;;;;;;;5002924;28;20454;-73
2022/03/15 11:49:04;;;;;;;12.17;7.73;;;;;;;;;;4998793;28;20454;-74
2022/03/15 11:51:36;;;;;;;9.20;6.90;;;;;;;;;;5004667;28;20462;-74
2022/03/15 11:54:08;;;;;;;12.20;8.43;;;;;;;;;;4995203;28;20451;-74
2022/03/15 11:56:39;;;;;;;7.40;5.60;;;;;;;;;;4974305;28;20452;-73
2022/03/15 11:59:06;;;;;;;6.50;5.80;;;;;;;;;;4991662;28;20448;-73
2022/03/15 12:01:44;;;;;;;8.83;5.60;;;;;;;;;;4991171;28;20452;-73
2022/03/15 12:04:12;;;;;;;6.70;5.20;;;;;;;;;;4993546;28;20824;-75
2022/03/15 12:06:39;;;;;;;11.70;6.10;;;;;;;;;;4993699;28;20443;-75
2022/03/15 12:09:12;;;;;;;10.17;6.60;;;;;;;;;;4995506;28;20458;-74
2022/03/15 12:11:42;;;;;;;10.07;6.77;;;;;;;;;;4998068;28;20493;-75
2022/03/15 12:14:11;;;;;;;6.80;6.00;;;;;;;;;;5004954;28;20875;-74
2022/03/15 12:16:41;;;;;;;10.53;7.27;;;;;;;;;;5008246;28;20451;-75
2022/03/15 12:19:15;;;;;;;8.40;6.63;;;;;;;;;;5010785;28;20450;-75
2022/03/15 12:21:52;;;;;;;12.07;6.53;;;;;;;;;;5001218;28;20455;-76
2022/03/15 12:24:20;;;;;;;10.00;6.17;;;;;;;;;;4997812;28;20483;-74
2022/03/15 12:26:48;;;;;;;9.10;6.93;;;;;;;;;;5012625;28;20454;-76
2022/03/15 12:29:17;;;;;;;7.33;6.60;;;;;;;;;;5010275;28;20455;-75
2022/03/15 12:31:45;;;;;;;9.83;6.87;;;;;;;;;;5006565;28;20451;-75
2022/03/15 12:34:14;;;;;;;10.20;6.70;;;;;;;;;;4997407;28;20435;-74
2022/03/15 12:36:48;;;;;;;10.10;6.50;;;;;;;;;;4993943;28;20560;-74
2022/03/15 12:39:17;;;;;;;10.30;6.13;;;;;;;;;;4990819;28;20452;-75
2022/03/15 12:41:44;;;;;;;11.17;6.60;;;;;;;;;;4995432;28;20470;-75
2022/03/15 12:44:12;;;;;;;7.97;5.73;;;;;;;;;;5008557;28;20482;-76
2022/03/15 12:46:40;;;;;;;13.50;6.63;;;;;;;;;;5010355;28;20546;-76
2022/03/15 12:49:08;;;;;;;10.33;5.70;;;;;;;;;;5003911;28;20465;-76
2022/03/15 12:51:38;;;;;;;11.23;5.93;;;;;;;;;;4996947;28;20455;-82
2022/03/15 12:54:07;;;;;;;6.83;6.07;;;;;;;;;;4992226;28;21043;-76
2022/03/15 12:56:35;;;;;;;10.03;6.57;;;;;;;;;;4994388;28;20451;-78
2022/03/15 12:59:02;;;;;;;8.13;6.20;;;;;;;;;;4992860;28;20452;-77
2022/03/15 13:01:29;;;;;;;9.00;5.87;;;;;;;;;;4993680;28;20485;-78
2022/03/15 13:03:58;;;;;;;6.23;5.50;;;;;;;;;;4994490;28;20447;-78
2022/03/15 13:06:25;;;;;;;7.40;5.27;;;;;;;;;;5011860;28;20451;-80
2022/03/15 13:08:55;;;;;;;8.30;5.80;;;;;;;;;;5002128;28;20483;-76
2022/03/15 13:11:22;;;;;;;11.50;6.60;;;;;;;;;;5004138;28;20439;-77
2022/03/15 13:13:49;;;;;;;9.70;5.73;;;;;;;;;;5013734;28;20840;-76
2022/03/15 13:16:17;;;;;;;8.60;6.10;;;;;;;;;;4996008;28;20470;-77
2022/03/15 13:18:44;;;;;;;11.20;7.53;;;;;;;;;;4995260;28;20451;-77
2022/03/15 13:21:12;;;;;;;6.57;5.40;;;;;;;;;;4994477;28;20480;-77
2022/03/15 13:23:41;;;;;;;8.40;5.60;;;;;;;;;;4995225;28;20491;-78
2022/03/15 13:26:12;;;;;;;8.53;5.50;;;;;;;;;;4997544;28;20865;-79
2022/03/15 13:28:41;;;;;;;9.67;6.07;;;;;;;;;;4996314;28;20819;-79
2022/03/15 13:31:09;;;;;;;8.33;5.63;;;;;;;;;;5001016;28;20964;-76
2022/03/15 13:33:38;;;;;;;13.50;7.30;;;;;;;;;;4985541;28;20949;-76
2022/03/15 13:36:07;;;;;;;8.57;6.33;;;;;;;;;;5005076;28;20456;-81
2022/03/15 13:38:36;;;;;;;7.73;5.70;;;;;;;;;;4993151;28;20452;-79
2022/03/15 13:41:05;;;;;;;6.53;5.50;;;;;;;;;;4977072;28;20479;-83
2022/03/15 13:43:34;;;;;;;7.90;5.73;;;;;;;;;;4993311;28;20472;-77
2022/03/15 13:46:05;;;;;;;11.47;6.53;;;;;;;;;;4994194;28;20452;-77
2022/03/15 13:48:32;;;;;;;8.17;6.00;;;;;;;;;;4995730;28;20452;-79
2022/03/15 13:51:03;;;;;;;11.47;6.10;;;;;;;;;;4995558;28;20454;-80
2022/03/15 13:53:31;;;;;;;6.53;5.47;;;;;;;;;;5000982;28;20466;-79
2022/03/15 13:56:07;;;;;;;11.20;6.23;;;;;;;;;;5002775;28;20539;-82
2022/03/15 13:58:35;;;;;;;11.80;6.43;;;;;;;;;;5012736;28;20453;-79
2022/03/15 14:01:04;;;;;;;9.17;6.80;;;;;;;;;;5013095;28;20483;-79
2022/03/15 14:03:34;;;;;;;9.00;6.27;;;;;;;;;;5012794;28;20462;-79
2022/03/15 14:06:02;;;;;;;7.00;5.60;;;;;;;;;;4996080;28;20843;-81
2022/03/15 14:08:30;;;;;;;9.87;6.40;;;;;;;;;;4996970;28;20489;-79
2022/03/15 14:10:57;;;;;;;7.60;6.43;;;;;;;;;;4997664;28;20917;-79
2022/03/15 14:13:29;;;;;;;6.90;6.17;;;;;;;;;;5015004;28;20469;-81
2022/03/15 14:16:07;;;;;;;9.17;6.43;;;;;;;;;;5001841;28;20828;-79
2022/03/15 14:18:34;;;;;;;9.13;6.40;;;;;;;;;;4983587;28;20502;-77
2022/03/15 14:21:02;;;;;;;11.53;6.70;;;;;;;;;;4992760;28;20534;-76
2022/03/15 14:23:29;;;;;;;17.40;7.43;;;;;;;;;;4992971;28;20515;-76
2022/03/15 14:26:00;;;;;;;8.10;5.57;;;;;;;;;;4993240;28;20483;-77
2022/03/15 14:28:28;;;;;;;6.30;5.50;;;;;;;;;;4993542;28;20454;-78
2022/03/15 14:31:03;;;;;;;9.40;5.70;;;;;;;;;;5004203;28;20455;-81
2022/03/15 14:33:30;;;;;;;8.40;6.00;;;;;;;;;;4997186;28;20473;-84
2022/03/15 14:36:00;;;;;;;7.80;6.07;;;;;;;;;;4996253;28;20529;-85
2022/03/15 14:38:27;;;;;;;7.30;5.73;;;;;;;;;;5000390;28;20431;-75
2022/03/15 14:40:55;;;;;;;7.40;5.97;;;;;;;;;;5001987;28;20475;-80
2022/03/15 14:43:23;;;;;;;6.67;5.33;;;;;;;;;;4994526;28;20471;-78